Hauptseite
METAR-TAF:

METAR-TAF

Flughäfen :

Militärflugplatz Volkel

Uden, Niederlande

Breite: 51-39N, Länge: 005-42E, Höhe: 22 m

Beobachtung

Neuester Wetterbericht von vor 29 Minuten, um 21:25 UTC
Wind 2 kt aus West/Nordwest
Temperatur 20°C
Luftfeuchtigkeit 68%
Luftdruck 1012 hPa
Sichtweite 10 km oder mehr
Leicht bewölkt in der Höhe von 2400 ft, Kumulonimbus.
Geschlossene Wolkendecke in der Höhe von 10000 ft

METAR: EHVK 202125Z AUTO 29002KT 9999 FEW024CB OVC100 20/14 Q1012 BLU

Zeit: 23:54 (21:54 UTC)

Prognose

Neuester Wetterbericht von vor 13 Stunden und 32 Minuten, um 08:22 UTC
Gültige Prognose vom 20 um 09 UTC bis 20 um 21 UTC
Wind 6 kt aus Nordwest
Sichtweite 10 km oder mehr
keine Wolken unter 1500 m und keine Kumulonimbus oder Gewitterwolken

TAF: EHVK 200822Z 2009/2021 31006KT CAVOK

Wetterbeobachtungen und Prognosen von mehr als 4000 Flughäfen (METAR und TAF Bericht).

Die verfügbaren Stationen werden durch gelbe und rote Markierungen auf der Karte dargestellt.

Führen Sie die Maus auf sie, um den Namen der Station zu sehen.

Darauf klicken, um die Beobachtung von Wetterbeobachtungen und Prognosen zu sehen.

Um die Karte zu ändern : klicken Sie auf den grünen Tasten mit einem schwarzen Kreuz Zum Vergrößern, auf den grünen Button mit einem Gedankenstrich zu verkleinern, oder auf die grünen Pfeile für benachbarte Karten.


METAR-TAF: